sensor_id;sensor_type;location;lat;lon;timestamp;temperature;humidity
64396;DHT22;50717;53.360;6.290;2023-04-08T00:00:36;4.50;99.90
64396;DHT22;50717;53.360;6.290;2023-04-08T00:03:02;4.40;99.90
64396;DHT22;50717;53.360;6.290;2023-04-08T00:05:27;4.40;99.90
64396;DHT22;50717;53.360;6.290;2023-04-08T00:07:53;4.70;99.90
64396;DHT22;50717;53.360;6.290;2023-04-08T00:10:19;4.60;99.90
64396;DHT22;50717;53.360;6.290;2023-04-08T00:12:45;4.50;99.90
64396;DHT22;50717;53.360;6.290;2023-04-08T00:15:11;4.40;99.90
64396;DHT22;50717;53.360;6.290;2023-04-08T00:17:37;4.50;99.90
64396;DHT22;50717;53.360;6.290;2023-04-08T00:22:29;4.30;99.90
64396;DHT22;50717;53.360;6.290;2023-04-08T00:24:55;4.20;99.90
64396;DHT22;50717;53.360;6.290;2023-04-08T00:27:21;4.10;99.90
64396;DHT22;50717;53.360;6.290;2023-04-08T00:29:49;4.20;99.90
64396;DHT22;50717;53.360;6.290;2023-04-08T00:32:15;4.20;99.90
64396;DHT22;50717;53.360;6.290;2023-04-08T00:34:41;4.30;99.90
64396;DHT22;50717;53.360;6.290;2023-04-08T00:37:06;4.40;99.90
64396;DHT22;50717;53.360;6.290;2023-04-08T00:39:36;4.20;99.90
64396;DHT22;50717;53.360;6.290;2023-04-08T00:42:02;3.80;99.90
64396;DHT22;50717;53.360;6.290;2023-04-08T00:44:28;4.10;99.90
64396;DHT22;50717;53.360;6.290;2023-04-08T00:46:54;3.80;99.90
64396;DHT22;50717;53.360;6.290;2023-04-08T00:49:19;4.20;99.90
64396;DHT22;50717;53.360;6.290;2023-04-08T00:51:45;3.90;99.90
64396;DHT22;50717;53.360;6.290;2023-04-08T00:54:11;4.00;99.90
64396;DHT22;50717;53.360;6.290;2023-04-08T00:56:37;4.30;99.90
64396;DHT22;50717;53.360;6.290;2023-04-08T00:59:03;4.10;99.90
64396;DHT22;50717;53.360;6.290;2023-04-08T01:02:11;3.80;99.90
64396;DHT22;50717;53.360;6.290;2023-04-08T01:07:23;4.20;99.90
64396;DHT22;50717;53.360;6.290;2023-04-08T01:09:54;4.20;99.90
64396;DHT22;50717;53.360;6.290;2023-04-08T01:12:25;3.90;99.90
64396;DHT22;50717;53.360;6.290;2023-04-08T01:14:58;3.90;99.90
64396;DHT22;50717;53.360;6.290;2023-04-08T01:17:26;3.80;99.90
64396;DHT22;50717;53.360;6.290;2023-04-08T01:19:51;3.90;99.90
64396;DHT22;50717;53.360;6.290;2023-04-08T01:27:33;3.40;99.90
64396;DHT22;50717;53.360;6.290;2023-04-08T01:30:02;3.30;99.90
64396;DHT22;50717;53.360;6.290;2023-04-08T01:32:30;3.70;99.90
64396;DHT22;50717;53.360;6.290;2023-04-08T01:34:56;3.80;99.90
64396;DHT22;50717;53.360;6.290;2023-04-08T01:37:24;3.60;99.90
64396;DHT22;50717;53.360;6.290;2023-04-08T01:39:53;3.50;99.90
64396;DHT22;50717;53.360;6.290;2023-04-08T01:42:24;3.50;99.90
64396;DHT22;50717;53.360;6.290;2023-04-08T01:44:52;3.50;99.90
64396;DHT22;50717;53.360;6.290;2023-04-08T01:49:46;3.60;99.90
64396;DHT22;50717;53.360;6.290;2023-04-08T01:52:12;3.30;99.90
64396;DHT22;50717;53.360;6.290;2023-04-08T01:54:39;3.40;99.90
64396;DHT22;50717;53.360;6.290;2023-04-08T01:57:06;3.20;99.90
64396;DHT22;50717;53.360;6.290;2023-04-08T01:59:34;3.40;99.90
64396;DHT22;50717;53.360;6.290;2023-04-08T02:02:01;3.30;99.90
64396;DHT22;50717;53.360;6.290;2023-04-08T02:04:30;3.10;99.90
64396;DHT22;50717;53.360;6.290;2023-04-08T02:09:21;3.40;99.90
64396;DHT22;50717;53.360;6.290;2023-04-08T02:14:13;2.70;99.90
64396;DHT22;50717;53.360;6.290;2023-04-08T02:19:22;3.20;99.90
64396;DHT22;50717;53.360;6.290;2023-04-08T02:24:21;3.40;99.90
64396;DHT22;50717;53.360;6.290;2023-04-08T02:31:45;3.30;99.90
64396;DHT22;50717;53.360;6.290;2023-04-08T02:34:12;3.20;99.90
64396;DHT22;50717;53.360;6.290;2023-04-08T02:36:39;3.10;99.90
64396;DHT22;50717;53.360;6.290;2023-04-08T02:39:05;3.10;99.90
64396;DHT22;50717;53.360;6.290;2023-04-08T02:41:31;3.10;99.90
64396;DHT22;50717;53.360;6.290;2023-04-08T02:43:57;2.90;99.90
64396;DHT22;50717;53.360;6.290;2023-04-08T02:46:23;3.10;99.90
64396;DHT22;50717;53.360;6.290;2023-04-08T02:48:49;2.80;99.90
64396;DHT22;50717;53.360;6.290;2023-04-08T02:51:15;3.30;99.90
64396;DHT22;50717;53.360;6.290;2023-04-08T02:53:41;3.00;99.90
64396;DHT22;50717;53.360;6.290;2023-04-08T02:56:09;3.20;99.90
64396;DHT22;50717;53.360;6.290;2023-04-08T03:01:01;3.20;99.90
64396;DHT22;50717;53.360;6.290;2023-04-08T03:03:27;3.00;99.90
64396;DHT22;50717;53.360;6.290;2023-04-08T03:05:57;3.10;99.90
64396;DHT22;50717;53.360;6.290;2023-04-08T03:13:15;3.00;99.90
64396;DHT22;50717;53.360;6.290;2023-04-08T03:15:41;3.00;99.90
64396;DHT22;50717;53.360;6.290;2023-04-08T03:18:07;3.10;99.90
64396;DHT22;50717;53.360;6.290;2023-04-08T03:22:59;3.20;99.90
64396;DHT22;50717;53.360;6.290;2023-04-08T03:27:51;2.90;99.90
64396;DHT22;50717;53.360;6.290;2023-04-08T03:30:16;2.90;99.90
64396;DHT22;50717;53.360;6.290;2023-04-08T03:32:42;2.90;99.90
64396;DHT22;50717;53.360;6.290;2023-04-08T03:35:08;3.00;99.90
64396;DHT22;50717;53.360;6.290;2023-04-08T03:37:34;2.90;99.90
64396;DHT22;50717;53.360;6.290;2023-04-08T03:39:59;3.00;99.90
64396;DHT22;50717;53.360;6.290;2023-04-08T03:42:27;3.00;99.90
64396;DHT22;50717;53.360;6.290;2023-04-08T03:47:19;3.10;99.90
64396;DHT22;50717;53.360;6.290;2023-04-08T03:52:11;2.80;99.90
64396;DHT22;50717;53.360;6.290;2023-04-08T03:54:37;3.00;99.90
64396;DHT22;50717;53.360;6.290;2023-04-08T03:57:02;2.80;99.90
64396;DHT22;50717;53.360;6.290;2023-04-08T04:01:54;2.70;99.90
64396;DHT22;50717;53.360;6.290;2023-04-08T04:04:21;2.80;99.90
64396;DHT22;50717;53.360;6.290;2023-04-08T04:09:12;2.70;99.90
64396;DHT22;50717;53.360;6.290;2023-04-08T04:11:39;2.70;99.90
64396;DHT22;50717;53.360;6.290;2023-04-08T04:14:05;2.80;99.90
64396;DHT22;50717;53.360;6.290;2023-04-08T04:16:31;2.70;99.90
64396;DHT22;50717;53.360;6.290;2023-04-08T04:18:56;2.70;99.90
64396;DHT22;50717;53.360;6.290;2023-04-08T04:21:22;2.90;99.90
64396;DHT22;50717;53.360;6.290;2023-04-08T04:23:47;2.80;99.90
64396;DHT22;50717;53.360;6.290;2023-04-08T04:26:13;2.90;99.90
64396;DHT22;50717;53.360;6.290;2023-04-08T04:28:39;3.20;99.90
64396;DHT22;50717;53.360;6.290;2023-04-08T04:31:05;2.80;99.90
64396;DHT22;50717;53.360;6.290;2023-04-08T04:40:50;3.00;99.90
64396;DHT22;50717;53.360;6.290;2023-04-08T04:45:44;2.90;99.90
64396;DHT22;50717;53.360;6.290;2023-04-08T04:48:10;3.10;99.90
64396;DHT22;50717;53.360;6.290;2023-04-08T04:50:36;3.10;99.90
64396;DHT22;50717;53.360;6.290;2023-04-08T04:53:02;2.90;99.90
64396;DHT22;50717;53.360;6.290;2023-04-08T04:55:27;3.00;99.90
64396;DHT22;50717;53.360;6.290;2023-04-08T04:57:53;3.00;99.90
64396;DHT22;50717;53.360;6.290;2023-04-08T05:05:11;2.90;99.90
64396;DHT22;50717;53.360;6.290;2023-04-08T05:07:37;2.90;99.90
64396;DHT22;50717;53.360;6.290;2023-04-08T05:10:04;2.60;99.90
64396;DHT22;50717;53.360;6.290;2023-04-08T05:14:59;2.80;99.90
64396;DHT22;50717;53.360;6.290;2023-04-08T05:17:25;2.90;99.90
64396;DHT22;50717;53.360;6.290;2023-04-08T05:19:50;2.80;99.90
64396;DHT22;50717;53.360;6.290;2023-04-08T05:22:17;2.90;99.90
64396;DHT22;50717;53.360;6.290;2023-04-08T05:29:36;3.10;99.90
64396;DHT22;50717;53.360;6.290;2023-04-08T05:32:01;2.70;99.90
64396;DHT22;50717;53.360;6.290;2023-04-08T05:34:30;2.50;99.90
64396;DHT22;50717;53.360;6.290;2023-04-08T05:36:56;2.90;99.90
64396;DHT22;50717;53.360;6.290;2023-04-08T05:39:22;2.80;99.90
64396;DHT22;50717;53.360;6.290;2023-04-08T05:46:40;3.00;99.90
64396;DHT22;50717;53.360;6.290;2023-04-08T05:49:05;3.00;99.90
64396;DHT22;50717;53.360;6.290;2023-04-08T05:51:31;3.20;99.90
64396;DHT22;50717;53.360;6.290;2023-04-08T05:56:23;3.40;99.90
64396;DHT22;50717;53.360;6.290;2023-04-08T06:01:15;3.50;99.90
64396;DHT22;50717;53.360;6.290;2023-04-08T06:06:10;3.80;99.90
64396;DHT22;50717;53.360;6.290;2023-04-08T06:08:36;3.80;99.90
64396;DHT22;50717;53.360;6.290;2023-04-08T06:11:02;3.70;99.90
64396;DHT22;50717;53.360;6.290;2023-04-08T06:13:30;3.70;99.90
64396;DHT22;50717;53.360;6.290;2023-04-08T06:15:56;4.10;99.90
64396;DHT22;50717;53.360;6.290;2023-04-08T06:18:21;3.80;99.90
64396;DHT22;50717;53.360;6.290;2023-04-08T06:20:47;4.00;99.90
64396;DHT22;50717;53.360;6.290;2023-04-08T06:23:13;4.30;99.90
64396;DHT22;50717;53.360;6.290;2023-04-08T06:25:39;3.90;99.90
64396;DHT22;50717;53.360;6.290;2023-04-08T06:28:04;3.80;99.90
64396;DHT22;50717;53.360;6.290;2023-04-08T06:30:30;4.50;99.90
64396;DHT22;50717;53.360;6.290;2023-04-08T06:32:56;4.00;99.90
64396;DHT22;50717;53.360;6.290;2023-04-08T06:35:21;4.10;99.90
64396;DHT22;50717;53.360;6.290;2023-04-08T06:40:13;4.40;99.90
64396;DHT22;50717;53.360;6.290;2023-04-08T06:42:39;4.40;99.90
64396;DHT22;50717;53.360;6.290;2023-04-08T06:45:07;4.50;99.90
64396;DHT22;50717;53.360;6.290;2023-04-08T06:47:33;4.80;99.90
64396;DHT22;50717;53.360;6.290;2023-04-08T06:52:25;5.10;99.90
64396;DHT22;50717;53.360;6.290;2023-04-08T06:54:51;5.00;99.90
64396;DHT22;50717;53.360;6.290;2023-04-08T06:57:17;5.40;99.90
64396;DHT22;50717;53.360;6.290;2023-04-08T06:59:43;5.10;99.90
64396;DHT22;50717;53.360;6.290;2023-04-08T07:02:08;5.60;99.90
64396;DHT22;50717;53.360;6.290;2023-04-08T07:04:34;5.80;99.90
64396;DHT22;50717;53.360;6.290;2023-04-08T07:07:00;6.10;99.90
64396;DHT22;50717;53.360;6.290;2023-04-08T07:09:25;6.30;99.90
64396;DHT22;50717;53.360;6.290;2023-04-08T07:11:51;6.10;99.90
64396;DHT22;50717;53.360;6.290;2023-04-08T07:14:17;6.60;99.90
64396;DHT22;50717;53.360;6.290;2023-04-08T07:16:43;6.20;99.90
64396;DHT22;50717;53.360;6.290;2023-04-08T07:19:09;6.30;99.90
64396;DHT22;50717;53.360;6.290;2023-04-08T07:21:35;6.30;99.90
64396;DHT22;50717;53.360;6.290;2023-04-08T07:24:01;6.40;99.90
64396;DHT22;50717;53.360;6.290;2023-04-08T07:26:26;6.70;99.90
64396;DHT22;50717;53.360;6.290;2023-04-08T07:28:52;6.60;99.90
64396;DHT22;50717;53.360;6.290;2023-04-08T07:31:18;6.60;99.90
64396;DHT22;50717;53.360;6.290;2023-04-08T07:33:45;6.80;99.90
64396;DHT22;50717;53.360;6.290;2023-04-08T07:36:12;6.60;99.90
64396;DHT22;50717;53.360;6.290;2023-04-08T07:38:38;6.70;99.90
64396;DHT22;50717;53.360;6.290;2023-04-08T07:41:04;6.70;99.90
64396;DHT22;50717;53.360;6.290;2023-04-08T07:43:30;6.70;99.90
64396;DHT22;50717;53.360;6.290;2023-04-08T07:46:04;6.80;99.90
64396;DHT22;50717;53.360;6.290;2023-04-08T07:48:31;6.60;99.90
64396;DHT22;50717;53.360;6.290;2023-04-08T07:50:57;7.00;99.90
64396;DHT22;50717;53.360;6.290;2023-04-08T07:53:27;6.80;99.90
64396;DHT22;50717;53.360;6.290;2023-04-08T07:55:52;6.70;99.90
64396;DHT22;50717;53.360;6.290;2023-04-08T07:58:18;6.80;99.90
64396;DHT22;50717;53.360;6.290;2023-04-08T08:00:44;7.00;99.90
64396;DHT22;50717;53.360;6.290;2023-04-08T08:03:09;6.80;99.90
64396;DHT22;50717;53.360;6.290;2023-04-08T08:05:35;6.90;99.90
64396;DHT22;50717;53.360;6.290;2023-04-08T08:08:04;7.00;99.90
64396;DHT22;50717;53.360;6.290;2023-04-08T08:10:32;6.80;99.90
64396;DHT22;50717;53.360;6.290;2023-04-08T08:12:58;6.60;99.90
64396;DHT22;50717;53.360;6.290;2023-04-08T08:15:23;7.30;99.90
64396;DHT22;50717;53.360;6.290;2023-04-08T08:17:49;7.00;99.90
64396;DHT22;50717;53.360;6.290;2023-04-08T08:20:15;6.80;99.90
64396;DHT22;50717;53.360;6.290;2023-04-08T08:22:41;6.70;99.90
64396;DHT22;50717;53.360;6.290;2023-04-08T08:25:07;8.20;99.90
64396;DHT22;50717;53.360;6.290;2023-04-08T08:27:34;7.10;99.90
64396;DHT22;50717;53.360;6.290;2023-04-08T08:30:02;6.70;99.90
64396;DHT22;50717;53.360;6.290;2023-04-08T08:32:28;7.20;99.90
64396;DHT22;50717;53.360;6.290;2023-04-08T08:34:53;7.00;99.90
64396;DHT22;50717;53.360;6.290;2023-04-08T08:37:19;7.20;99.90
64396;DHT22;50717;53.360;6.290;2023-04-08T08:39:45;8.00;99.90
64396;DHT22;50717;53.360;6.290;2023-04-08T08:42:23;7.20;99.90
64396;DHT22;50717;53.360;6.290;2023-04-08T08:44:49;7.20;99.90
64396;DHT22;50717;53.360;6.290;2023-04-08T08:47:15;7.30;99.90
64396;DHT22;50717;53.360;6.290;2023-04-08T08:49:42;7.00;99.90
64396;DHT22;50717;53.360;6.290;2023-04-08T08:52:08;7.70;99.90
64396;DHT22;50717;53.360;6.290;2023-04-08T08:54:34;7.60;99.90
64396;DHT22;50717;53.360;6.290;2023-04-08T08:57:00;8.30;99.90
64396;DHT22;50717;53.360;6.290;2023-04-08T08:59:26;8.50;99.90
64396;DHT22;50717;53.360;6.290;2023-04-08T09:01:51;7.40;99.90
64396;DHT22;50717;53.360;6.290;2023-04-08T09:04:20;7.40;99.90
64396;DHT22;50717;53.360;6.290;2023-04-08T09:06:48;7.60;99.90
64396;DHT22;50717;53.360;6.290;2023-04-08T09:09:16;7.70;99.90
64396;DHT22;50717;53.360;6.290;2023-04-08T09:11:44;7.50;99.90
64396;DHT22;50717;53.360;6.290;2023-04-08T09:14:23;8.00;99.90
64396;DHT22;50717;53.360;6.290;2023-04-08T09:16:50;7.50;99.90
64396;DHT22;50717;53.360;6.290;2023-04-08T09:19:16;8.40;99.90
64396;DHT22;50717;53.360;6.290;2023-04-08T09:21:42;7.40;99.90
64396;DHT22;50717;53.360;6.290;2023-04-08T09:24:09;7.80;99.90
64396;DHT22;50717;53.360;6.290;2023-04-08T09:26:36;7.70;99.90
64396;DHT22;50717;53.360;6.290;2023-04-08T09:29:06;7.40;99.90
64396;DHT22;50717;53.360;6.290;2023-04-08T09:31:37;7.90;99.90
64396;DHT22;50717;53.360;6.290;2023-04-08T09:34:12;7.90;99.90
64396;DHT22;50717;53.360;6.290;2023-04-08T09:36:38;8.10;99.90
64396;DHT22;50717;53.360;6.290;2023-04-08T09:39:04;8.40;99.90
64396;DHT22;50717;53.360;6.290;2023-04-08T09:41:33;8.30;99.90
64396;DHT22;50717;53.360;6.290;2023-04-08T09:44:03;8.30;99.90
64396;DHT22;50717;53.360;6.290;2023-04-08T09:49:12;7.90;99.90
64396;DHT22;50717;53.360;6.290;2023-04-08T09:51:53;7.70;99.90
64396;DHT22;50717;53.360;6.290;2023-04-08T09:54:43;8.60;99.90
64396;DHT22;50717;53.360;6.290;2023-04-08T09:57:12;8.70;99.90
64396;DHT22;50717;53.360;6.290;2023-04-08T09:59:44;8.80;99.90
64396;DHT22;50717;53.360;6.290;2023-04-08T10:02:15;8.40;99.90
64396;DHT22;50717;53.360;6.290;2023-04-08T10:04:42;8.50;99.90
64396;DHT22;50717;53.360;6.290;2023-04-08T10:07:10;8.70;99.90
64396;DHT22;50717;53.360;6.290;2023-04-08T10:09:35;8.90;99.90
64396;DHT22;50717;53.360;6.290;2023-04-08T10:12:03;8.60;99.90
64396;DHT22;50717;53.360;6.290;2023-04-08T10:14:29;9.20;99.90
64396;DHT22;50717;53.360;6.290;2023-04-08T10:17:23;8.80;99.90
64396;DHT22;50717;53.360;6.290;2023-04-08T10:19:49;8.90;99.90
64396;DHT22;50717;53.360;6.290;2023-04-08T10:27:44;9.10;99.90
64396;DHT22;50717;53.360;6.290;2023-04-08T10:30:40;9.40;99.90
64396;DHT22;50717;53.360;6.290;2023-04-08T10:33:17;9.10;99.90
64396;DHT22;50717;53.360;6.290;2023-04-08T10:35:48;9.00;99.90
64396;DHT22;50717;53.360;6.290;2023-04-08T10:38:15;9.20;99.90
64396;DHT22;50717;53.360;6.290;2023-04-08T10:40:42;9.10;99.90
64396;DHT22;50717;53.360;6.290;2023-04-08T10:43:10;9.00;99.90
64396;DHT22;50717;53.360;6.290;2023-04-08T10:45:37;9.10;99.90
64396;DHT22;50717;53.360;6.290;2023-04-08T10:48:19;9.30;99.90
64396;DHT22;50717;53.360;6.290;2023-04-08T10:53:28;8.90;99.90
64396;DHT22;50717;53.360;6.290;2023-04-08T10:56:09;8.90;99.90
64396;DHT22;50717;53.360;6.290;2023-04-08T10:58:50;8.90;99.90
64396;DHT22;50717;53.360;6.290;2023-04-08T11:01:17;8.90;99.90
64396;DHT22;50717;53.360;6.290;2023-04-08T11:03:43;9.00;99.90
64396;DHT22;50717;53.360;6.290;2023-04-08T11:06:09;8.90;99.90
64396;DHT22;50717;53.360;6.290;2023-04-08T11:08:35;8.70;99.90
64396;DHT22;50717;53.360;6.290;2023-04-08T11:11:02;8.70;99.90
64396;DHT22;50717;53.360;6.290;2023-04-08T11:13:29;8.70;99.90
64396;DHT22;50717;53.360;6.290;2023-04-08T11:15:57;8.70;99.90
64396;DHT22;50717;53.360;6.290;2023-04-08T11:18:23;8.60;99.90
64396;DHT22;50717;53.360;6.290;2023-04-08T11:20:50;8.60;99.90
64396;DHT22;50717;53.360;6.290;2023-04-08T11:23:17;8.80;99.90
64396;DHT22;50717;53.360;6.290;2023-04-08T11:25:44;8.80;99.90
64396;DHT22;50717;53.360;6.290;2023-04-08T11:28:11;8.90;99.90
64396;DHT22;50717;53.360;6.290;2023-04-08T11:30:38;8.60;99.90
64396;DHT22;50717;53.360;6.290;2023-04-08T11:33:06;9.10;99.90
64396;DHT22;50717;53.360;6.290;2023-04-08T11:35:32;8.90;99.90
64396;DHT22;50717;53.360;6.290;2023-04-08T11:37:58;9.20;99.90
64396;DHT22;50717;53.360;6.290;2023-04-08T11:40:24;9.60;99.90
64396;DHT22;50717;53.360;6.290;2023-04-08T11:42:51;9.10;99.90
64396;DHT22;50717;53.360;6.290;2023-04-08T11:45:19;9.20;99.90
64396;DHT22;50717;53.360;6.290;2023-04-08T11:47:46;9.00;99.90
64396;DHT22;50717;53.360;6.290;2023-04-08T11:50:25;9.30;99.90
64396;DHT22;50717;53.360;6.290;2023-04-08T11:52:51;9.30;99.90
64396;DHT22;50717;53.360;6.290;2023-04-08T11:55:28;9.30;99.90
64396;DHT22;50717;53.360;6.290;2023-04-08T11:57:56;9.40;99.90
64396;DHT22;50717;53.360;6.290;2023-04-08T12:00:22;9.30;99.90
64396;DHT22;50717;53.360;6.290;2023-04-08T12:02:49;9.50;99.90
64396;DHT22;50717;53.360;6.290;2023-04-08T12:05:16;9.70;99.90
64396;DHT22;50717;53.360;6.290;2023-04-08T12:07:42;9.30;99.90
64396;DHT22;50717;53.360;6.290;2023-04-08T12:10:09;10.30;99.90
64396;DHT22;50717;53.360;6.290;2023-04-08T12:12:35;9.50;99.90
64396;DHT22;50717;53.360;6.290;2023-04-08T12:15:01;9.30;99.90
64396;DHT22;50717;53.360;6.290;2023-04-08T12:17:26;9.50;99.90
64396;DHT22;50717;53.360;6.290;2023-04-08T12:19:52;9.90;99.90
64396;DHT22;50717;53.360;6.290;2023-04-08T12:22:18;9.60;99.90
64396;DHT22;50717;53.360;6.290;2023-04-08T12:24:44;9.50;99.90
64396;DHT22;50717;53.360;6.290;2023-04-08T12:27:09;9.90;99.90
64396;DHT22;50717;53.360;6.290;2023-04-08T12:29:35;9.90;99.90
64396;DHT22;50717;53.360;6.290;2023-04-08T12:32:01;9.90;99.90
64396;DHT22;50717;53.360;6.290;2023-04-08T12:34:27;9.60;99.90
64396;DHT22;50717;53.360;6.290;2023-04-08T12:36:53;9.50;99.90
64396;DHT22;50717;53.360;6.290;2023-04-08T12:39:19;9.50;99.90
64396;DHT22;50717;53.360;6.290;2023-04-08T12:41:45;9.70;99.90
64396;DHT22;50717;53.360;6.290;2023-04-08T12:44:11;10.00;99.90
64396;DHT22;50717;53.360;6.290;2023-04-08T12:46:37;10.20;99.90
64396;DHT22;50717;53.360;6.290;2023-04-08T12:49:02;10.40;99.90
64396;DHT22;50717;53.360;6.290;2023-04-08T12:51:28;10.30;99.90
64396;DHT22;50717;53.360;6.290;2023-04-08T12:53:54;10.50;99.90
64396;DHT22;50717;53.360;6.290;2023-04-08T12:56:19;10.60;99.90
64396;DHT22;50717;53.360;6.290;2023-04-08T12:58:45;11.20;99.90
64396;DHT22;50717;53.360;6.290;2023-04-08T13:01:11;11.30;99.90
64396;DHT22;50717;53.360;6.290;2023-04-08T13:03:37;11.10;99.90
64396;DHT22;50717;53.360;6.290;2023-04-08T13:06:03;11.20;99.90
64396;DHT22;50717;53.360;6.290;2023-04-08T13:08:29;11.40;99.90
64396;DHT22;50717;53.360;6.290;2023-04-08T13:10:55;11.50;99.90
64396;DHT22;50717;53.360;6.290;2023-04-08T13:13:21;11.30;99.90
64396;DHT22;50717;53.360;6.290;2023-04-08T13:15:46;11.70;99.90
64396;DHT22;50717;53.360;6.290;2023-04-08T13:18:12;11.90;99.90
64396;DHT22;50717;53.360;6.290;2023-04-08T13:20:38;11.70;99.90
64396;DHT22;50717;53.360;6.290;2023-04-08T13:23:04;11.60;99.90
64396;DHT22;50717;53.360;6.290;2023-04-08T13:25:30;12.10;99.90
64396;DHT22;50717;53.360;6.290;2023-04-08T13:27:55;11.90;99.90
64396;DHT22;50717;53.360;6.290;2023-04-08T13:30:21;11.90;99.90
64396;DHT22;50717;53.360;6.290;2023-04-08T13:32:47;12.00;99.90
64396;DHT22;50717;53.360;6.290;2023-04-08T13:35:13;12.10;99.90
64396;DHT22;50717;53.360;6.290;2023-04-08T13:37:38;11.90;99.90
64396;DHT22;50717;53.360;6.290;2023-04-08T13:40:04;12.10;99.90
64396;DHT22;50717;53.360;6.290;2023-04-08T13:42:30;12.10;99.90
64396;DHT22;50717;53.360;6.290;2023-04-08T13:44:57;12.40;99.90
64396;DHT22;50717;53.360;6.290;2023-04-08T13:47:23;12.30;99.90
64396;DHT22;50717;53.360;6.290;2023-04-08T13:49:48;12.40;99.90
64396;DHT22;50717;53.360;6.290;2023-04-08T13:52:14;12.30;99.90
64396;DHT22;50717;53.360;6.290;2023-04-08T13:54:40;12.40;99.90
64396;DHT22;50717;53.360;6.290;2023-04-08T13:57:06;12.60;99.90
64396;DHT22;50717;53.360;6.290;2023-04-08T13:59:32;12.30;99.90
64396;DHT22;50717;53.360;6.290;2023-04-08T14:01:58;12.20;99.90
64396;DHT22;50717;53.360;6.290;2023-04-08T14:04:23;12.40;99.90
64396;DHT22;50717;53.360;6.290;2023-04-08T14:06:49;12.20;99.90
64396;DHT22;50717;53.360;6.290;2023-04-08T14:09:16;12.70;99.90
64396;DHT22;50717;53.360;6.290;2023-04-08T14:11:42;12.40;99.90
64396;DHT22;50717;53.360;6.290;2023-04-08T14:14:08;12.20;99.90
64396;DHT22;50717;53.360;6.290;2023-04-08T14:16:33;12.80;99.90
64396;DHT22;50717;53.360;6.290;2023-04-08T14:19:00;12.90;99.90
64396;DHT22;50717;53.360;6.290;2023-04-08T14:21:26;13.20;99.90
64396;DHT22;50717;53.360;6.290;2023-04-08T14:23:52;12.70;99.90
64396;DHT22;50717;53.360;6.290;2023-04-08T14:26:17;13.20;99.90
64396;DHT22;50717;53.360;6.290;2023-04-08T14:28:43;13.10;99.90
64396;DHT22;50717;53.360;6.290;2023-04-08T14:31:09;13.80;99.90
64396;DHT22;50717;53.360;6.290;2023-04-08T14:33:34;13.30;99.90
64396;DHT22;50717;53.360;6.290;2023-04-08T14:36:00;13.80;99.90
64396;DHT22;50717;53.360;6.290;2023-04-08T14:38:26;13.90;99.90
64396;DHT22;50717;53.360;6.290;2023-04-08T14:40:52;14.10;99.90
64396;DHT22;50717;53.360;6.290;2023-04-08T14:43:19;14.10;99.90
64396;DHT22;50717;53.360;6.290;2023-04-08T14:45:45;14.70;99.90
64396;DHT22;50717;53.360;6.290;2023-04-08T14:48:11;14.30;99.90
64396;DHT22;50717;53.360;6.290;2023-04-08T14:50:36;14.20;99.90
64396;DHT22;50717;53.360;6.290;2023-04-08T14:53:02;14.10;99.90
64396;DHT22;50717;53.360;6.290;2023-04-08T14:55:28;14.60;99.90
64396;DHT22;50717;53.360;6.290;2023-04-08T14:57:55;14.80;99.90
64396;DHT22;50717;53.360;6.290;2023-04-08T15:00:21;14.40;99.90
64396;DHT22;50717;53.360;6.290;2023-04-08T15:02:47;14.90;99.90
64396;DHT22;50717;53.360;6.290;2023-04-08T15:05:12;14.70;99.90
64396;DHT22;50717;53.360;6.290;2023-04-08T15:07:38;14.70;99.90
64396;DHT22;50717;53.360;6.290;2023-04-08T15:10:04;15.40;99.90
64396;DHT22;50717;53.360;6.290;2023-04-08T15:12:30;15.60;99.90
64396;DHT22;50717;53.360;6.290;2023-04-08T15:14:57;15.20;99.90
64396;DHT22;50717;53.360;6.290;2023-04-08T15:17:23;14.90;99.90
64396;DHT22;50717;53.360;6.290;2023-04-08T15:19:51;14.50;99.90
64396;DHT22;50717;53.360;6.290;2023-04-08T15:22:16;14.10;99.90
64396;DHT22;50717;53.360;6.290;2023-04-08T15:24:42;13.50;99.90
64396;DHT22;50717;53.360;6.290;2023-04-08T15:27:08;13.10;99.90
64396;DHT22;50717;53.360;6.290;2023-04-08T15:29:37;13.10;99.90
64396;DHT22;50717;53.360;6.290;2023-04-08T15:32:03;13.40;99.90
64396;DHT22;50717;53.360;6.290;2023-04-08T15:34:29;13.30;99.90
64396;DHT22;50717;53.360;6.290;2023-04-08T15:36:54;13.50;99.90
64396;DHT22;50717;53.360;6.290;2023-04-08T15:39:23;14.00;99.90
64396;DHT22;50717;53.360;6.290;2023-04-08T15:41:49;13.90;99.90
64396;DHT22;50717;53.360;6.290;2023-04-08T15:44:14;14.20;99.90
64396;DHT22;50717;53.360;6.290;2023-04-08T15:46:40;14.30;99.90
64396;DHT22;50717;53.360;6.290;2023-04-08T15:49:06;14.60;99.90
64396;DHT22;50717;53.360;6.290;2023-04-08T15:51:35;14.60;99.90
64396;DHT22;50717;53.360;6.290;2023-04-08T15:54:01;14.60;99.90
64396;DHT22;50717;53.360;6.290;2023-04-08T15:56:27;14.10;99.90
64396;DHT22;50717;53.360;6.290;2023-04-08T15:58:54;13.80;99.90
64396;DHT22;50717;53.360;6.290;2023-04-08T16:01:21;13.80;99.90
64396;DHT22;50717;53.360;6.290;2023-04-08T16:03:47;13.40;99.90
64396;DHT22;50717;53.360;6.290;2023-04-08T16:06:13;13.20;99.90
64396;DHT22;50717;53.360;6.290;2023-04-08T16:08:39;13.00;99.90
64396;DHT22;50717;53.360;6.290;2023-04-08T16:11:05;12.20;99.90
64396;DHT22;50717;53.360;6.290;2023-04-08T16:13:32;11.50;99.90
64396;DHT22;50717;53.360;6.290;2023-04-08T16:16:00;11.70;99.90
64396;DHT22;50717;53.360;6.290;2023-04-08T16:18:27;11.50;99.90
64396;DHT22;50717;53.360;6.290;2023-04-08T16:20:53;11.40;99.90
64396;DHT22;50717;53.360;6.290;2023-04-08T16:23:18;11.40;99.90
64396;DHT22;50717;53.360;6.290;2023-04-08T16:25:44;11.40;99.90
64396;DHT22;50717;53.360;6.290;2023-04-08T16:28:10;11.50;99.90
64396;DHT22;50717;53.360;6.290;2023-04-08T16:30:36;11.70;99.90
64396;DHT22;50717;53.360;6.290;2023-04-08T16:33:04;11.60;99.90
64396;DHT22;50717;53.360;6.290;2023-04-08T16:35:29;11.30;99.90
64396;DHT22;50717;53.360;6.290;2023-04-08T16:37:55;11.30;99.90
64396;DHT22;50717;53.360;6.290;2023-04-08T16:40:21;11.70;99.90
64396;DHT22;50717;53.360;6.290;2023-04-08T16:42:46;11.70;99.90
64396;DHT22;50717;53.360;6.290;2023-04-08T16:45:12;11.30;99.90
64396;DHT22;50717;53.360;6.290;2023-04-08T16:47:38;11.40;99.90
64396;DHT22;50717;53.360;6.290;2023-04-08T16:50:07;11.40;99.90
64396;DHT22;50717;53.360;6.290;2023-04-08T16:52:33;11.10;99.90
64396;DHT22;50717;53.360;6.290;2023-04-08T16:54:59;11.30;99.90
64396;DHT22;50717;53.360;6.290;2023-04-08T16:57:25;11.00;99.90
64396;DHT22;50717;53.360;6.290;2023-04-08T16:59:53;10.60;99.90
64396;DHT22;50717;53.360;6.290;2023-04-08T17:02:19;10.80;99.90
64396;DHT22;50717;53.360;6.290;2023-04-08T17:04:48;10.70;99.90
64396;DHT22;50717;53.360;6.290;2023-04-08T17:07:14;10.80;99.90
64396;DHT22;50717;53.360;6.290;2023-04-08T17:09:40;10.50;99.90
64396;DHT22;50717;53.360;6.290;2023-04-08T17:12:06;10.20;99.90
64396;DHT22;50717;53.360;6.290;2023-04-08T17:14:33;9.90;99.90
64396;DHT22;50717;53.360;6.290;2023-04-08T17:16:58;10.00;99.90
64396;DHT22;50717;53.360;6.290;2023-04-08T17:19:24;10.00;99.90